sensor_id;sensor_type;location;lat;lon;timestamp;pressure;altitude;pressure_sealevel;temperature;humidity
2178;BME280;1095;50.992;6.798;2023-04-09T00:01:01;101780.78;;;7.16;100.00
2178;BME280;1095;50.992;6.798;2023-04-09T00:03:28;101797.97;;;7.18;100.00
2178;BME280;1095;50.992;6.798;2023-04-09T00:05:55;101798.59;;;7.09;100.00
2178;BME280;1095;50.992;6.798;2023-04-09T00:08:23;101794.44;;;6.94;100.00
2178;BME280;1095;50.992;6.798;2023-04-09T00:10:49;101797.25;;;6.91;100.00
2178;BME280;1095;50.992;6.798;2023-04-09T00:13:16;101793.91;;;6.89;100.00
2178;BME280;1095;50.992;6.798;2023-04-09T00:15:43;101798.69;;;6.82;100.00
2178;BME280;1095;50.992;6.798;2023-04-09T00:18:10;101802.53;;;6.77;100.00
2178;BME280;1095;50.992;6.798;2023-04-09T00:20:36;101801.59;;;6.65;100.00
2178;BME280;1095;50.992;6.798;2023-04-09T00:23:06;101796.59;;;6.62;100.00
2178;BME280;1095;50.992;6.798;2023-04-09T00:25:34;101799.19;;;6.62;100.00
2178;BME280;1095;50.992;6.798;2023-04-09T00:28:01;101791.28;;;6.51;100.00
2178;BME280;1095;50.992;6.798;2023-04-09T00:30:36;101789.59;;;6.37;100.00
2178;BME280;1095;50.992;6.798;2023-04-09T00:33:03;101796.94;;;6.30;100.00
2178;BME280;1095;50.992;6.798;2023-04-09T00:35:29;101799.03;;;6.25;100.00
2178;BME280;1095;50.992;6.798;2023-04-09T00:37:56;101803.03;;;6.17;100.00
2178;BME280;1095;50.992;6.798;2023-04-09T00:40:22;101798.47;;;6.20;100.00
2178;BME280;1095;50.992;6.798;2023-04-09T00:42:50;101796.81;;;6.19;100.00
2178;BME280;1095;50.992;6.798;2023-04-09T00:45:17;101797.75;;;6.18;100.00
2178;BME280;1095;50.992;6.798;2023-04-09T00:47:44;101797.25;;;6.13;100.00
2178;BME280;1095;50.992;6.798;2023-04-09T00:50:10;101802.72;;;6.09;100.00
2178;BME280;1095;50.992;6.798;2023-04-09T00:52:37;101805.44;;;6.07;100.00
2178;BME280;1095;50.992;6.798;2023-04-09T00:55:04;101806.56;;;6.03;100.00
2178;BME280;1095;50.992;6.798;2023-04-09T00:57:31;101797.72;;;6.06;100.00
2178;BME280;1095;50.992;6.798;2023-04-09T01:00:00;101794.28;;;6.05;100.00
2178;BME280;1095;50.992;6.798;2023-04-09T01:02:27;101804.09;;;6.14;100.00
2178;BME280;1095;50.992;6.798;2023-04-09T01:04:55;101796.72;;;6.21;100.00
2178;BME280;1095;50.992;6.798;2023-04-09T01:07:31;101793.16;;;6.09;100.00
2178;BME280;1095;50.992;6.798;2023-04-09T01:10:08;101793.75;;;6.00;100.00
2178;BME280;1095;50.992;6.798;2023-04-09T01:12:45;101787.72;;;5.85;100.00
2178;BME280;1095;50.992;6.798;2023-04-09T01:15:20;101786.34;;;5.80;100.00
2178;BME280;1095;50.992;6.798;2023-04-09T01:17:51;101800.34;;;5.77;100.00
2178;BME280;1095;50.992;6.798;2023-04-09T01:20:25;101798.78;;;5.75;100.00
2178;BME280;1095;50.992;6.798;2023-04-09T01:23:00;101785.72;;;5.76;100.00
2178;BME280;1095;50.992;6.798;2023-04-09T01:25:40;101797.84;;;5.76;100.00
2178;BME280;1095;50.992;6.798;2023-04-09T01:28:16;101797.66;;;5.79;100.00
2178;BME280;1095;50.992;6.798;2023-04-09T01:30:45;101800.44;;;5.76;100.00
2178;BME280;1095;50.992;6.798;2023-04-09T01:33:14;101796.94;;;5.77;100.00
2178;BME280;1095;50.992;6.798;2023-04-09T01:35:45;101802.50;;;5.71;100.00
2178;BME280;1095;50.992;6.798;2023-04-09T01:38:14;101807.78;;;5.69;100.00
2178;BME280;1095;50.992;6.798;2023-04-09T01:40:42;101807.69;;;5.71;100.00
2178;BME280;1095;50.992;6.798;2023-04-09T01:43:09;101805.28;;;5.67;100.00
2178;BME280;1095;50.992;6.798;2023-04-09T01:45:38;101806.03;;;5.70;100.00
2178;BME280;1095;50.992;6.798;2023-04-09T01:48:05;101807.09;;;5.67;100.00
2178;BME280;1095;50.992;6.798;2023-04-09T01:50:32;101806.44;;;5.63;100.00
2178;BME280;1095;50.992;6.798;2023-04-09T01:53:00;101805.28;;;5.67;100.00
2178;BME280;1095;50.992;6.798;2023-04-09T01:55:26;101802.81;;;5.66;100.00
2178;BME280;1095;50.992;6.798;2023-04-09T01:57:53;101801.25;;;5.63;100.00
2178;BME280;1095;50.992;6.798;2023-04-09T02:00:20;101800.41;;;5.63;100.00
2178;BME280;1095;50.992;6.798;2023-04-09T02:02:53;101796.97;;;5.62;100.00
2178;BME280;1095;50.992;6.798;2023-04-09T02:05:23;101803.09;;;5.61;100.00
2178;BME280;1095;50.992;6.798;2023-04-09T02:07:54;101797.91;;;5.61;100.00
2178;BME280;1095;50.992;6.798;2023-04-09T02:10:23;101804.78;;;5.62;100.00
2178;BME280;1095;50.992;6.798;2023-04-09T02:12:52;101805.19;;;5.69;100.00
2178;BME280;1095;50.992;6.798;2023-04-09T02:15:21;101801.56;;;5.72;100.00
2178;BME280;1095;50.992;6.798;2023-04-09T02:17:49;101801.66;;;5.70;100.00
2178;BME280;1095;50.992;6.798;2023-04-09T02:20:17;101802.69;;;5.67;100.00
2178;BME280;1095;50.992;6.798;2023-04-09T02:22:44;101797.72;;;5.64;100.00
2178;BME280;1095;50.992;6.798;2023-04-09T02:25:10;101793.13;;;5.68;100.00
2178;BME280;1095;50.992;6.798;2023-04-09T02:27:37;101790.66;;;5.66;100.00
2178;BME280;1095;50.992;6.798;2023-04-09T02:30:04;101795.22;;;5.63;100.00
2178;BME280;1095;50.992;6.798;2023-04-09T02:32:31;101789.75;;;5.53;100.00
2178;BME280;1095;50.992;6.798;2023-04-09T02:34:59;101792.53;;;5.50;100.00
2178;BME280;1095;50.992;6.798;2023-04-09T02:37:25;101793.56;;;5.48;100.00
2178;BME280;1095;50.992;6.798;2023-04-09T02:39:52;101795.31;;;5.47;100.00
2178;BME280;1095;50.992;6.798;2023-04-09T02:42:19;101785.31;;;5.41;100.00
2178;BME280;1095;50.992;6.798;2023-04-09T02:44:46;101784.56;;;5.39;100.00
2178;BME280;1095;50.992;6.798;2023-04-09T02:47:12;101784.03;;;5.34;100.00
2178;BME280;1095;50.992;6.798;2023-04-09T02:49:39;101773.91;;;5.29;100.00
2178;BME280;1095;50.992;6.798;2023-04-09T02:52:08;101781.63;;;5.31;100.00
2178;BME280;1095;50.992;6.798;2023-04-09T02:54:35;101772.53;;;5.24;100.00
2178;BME280;1095;50.992;6.798;2023-04-09T02:57:01;101776.69;;;5.26;100.00
2178;BME280;1095;50.992;6.798;2023-04-09T02:59:28;101770.69;;;5.26;100.00
2178;BME280;1095;50.992;6.798;2023-04-09T03:01:57;101776.06;;;5.23;100.00
2178;BME280;1095;50.992;6.798;2023-04-09T03:04:23;101783.41;;;5.16;100.00
2178;BME280;1095;50.992;6.798;2023-04-09T03:06:50;101782.75;;;5.13;100.00
2178;BME280;1095;50.992;6.798;2023-04-09T03:09:18;101776.81;;;5.11;100.00
2178;BME280;1095;50.992;6.798;2023-04-09T03:11:45;101778.69;;;5.09;100.00
2178;BME280;1095;50.992;6.798;2023-04-09T03:14:11;101783.13;;;5.07;100.00
2178;BME280;1095;50.992;6.798;2023-04-09T03:16:38;101780.91;;;5.00;100.00
2178;BME280;1095;50.992;6.798;2023-04-09T03:19:04;101780.44;;;4.94;100.00
2178;BME280;1095;50.992;6.798;2023-04-09T03:21:31;101768.19;;;4.82;100.00
2178;BME280;1095;50.992;6.798;2023-04-09T03:23:58;101768.72;;;4.73;100.00
2178;BME280;1095;50.992;6.798;2023-04-09T03:26:26;101774.38;;;4.65;100.00
2178;BME280;1095;50.992;6.798;2023-04-09T03:28:52;101769.81;;;4.54;100.00
2178;BME280;1095;50.992;6.798;2023-04-09T03:31:19;101773.41;;;4.52;100.00
2178;BME280;1095;50.992;6.798;2023-04-09T03:33:45;101772.84;;;4.47;100.00
2178;BME280;1095;50.992;6.798;2023-04-09T03:36:12;101771.44;;;4.41;100.00
2178;BME280;1095;50.992;6.798;2023-04-09T03:38:38;101765.59;;;4.38;100.00
2178;BME280;1095;50.992;6.798;2023-04-09T03:41:05;101762.63;;;4.29;100.00
2178;BME280;1095;50.992;6.798;2023-04-09T03:43:33;101756.88;;;4.24;100.00
2178;BME280;1095;50.992;6.798;2023-04-09T03:46:00;101759.00;;;4.18;100.00
2178;BME280;1095;50.992;6.798;2023-04-09T03:48:26;101769.34;;;4.18;100.00
2178;BME280;1095;50.992;6.798;2023-04-09T03:50:53;101765.75;;;4.20;100.00
2178;BME280;1095;50.992;6.798;2023-04-09T03:53:20;101770.56;;;4.26;100.00
2178;BME280;1095;50.992;6.798;2023-04-09T03:55:46;101770.03;;;4.21;100.00
2178;BME280;1095;50.992;6.798;2023-04-09T03:58:13;101775.53;;;4.15;100.00
2178;BME280;1095;50.992;6.798;2023-04-09T04:00:41;101780.91;;;4.12;100.00
2178;BME280;1095;50.992;6.798;2023-04-09T04:03:07;101782.72;;;4.10;100.00
2178;BME280;1095;50.992;6.798;2023-04-09T04:05:37;101784.75;;;4.05;100.00
2178;BME280;1095;50.992;6.798;2023-04-09T04:08:04;101773.13;;;3.96;100.00
2178;BME280;1095;50.992;6.798;2023-04-09T04:10:32;101779.31;;;3.94;100.00
2178;BME280;1095;50.992;6.798;2023-04-09T04:12:59;101785.69;;;3.88;100.00
2178;BME280;1095;50.992;6.798;2023-04-09T04:15:26;101785.75;;;3.87;100.00
2178;BME280;1095;50.992;6.798;2023-04-09T04:17:54;101780.50;;;3.88;100.00
2178;BME280;1095;50.992;6.798;2023-04-09T04:20:21;101780.59;;;3.87;100.00
2178;BME280;1095;50.992;6.798;2023-04-09T04:22:47;101773.72;;;3.86;100.00
2178;BME280;1095;50.992;6.798;2023-04-09T04:25:14;101772.06;;;3.85;100.00
2178;BME280;1095;50.992;6.798;2023-04-09T04:27:40;101781.41;;;4.03;100.00
2178;BME280;1095;50.992;6.798;2023-04-09T04:30:08;101769.72;;;3.96;100.00
2178;BME280;1095;50.992;6.798;2023-04-09T04:32:34;101780.31;;;3.91;100.00
2178;BME280;1095;50.992;6.798;2023-04-09T04:35:03;101771.56;;;3.94;100.00
2178;BME280;1095;50.992;6.798;2023-04-09T04:37:29;101775.41;;;3.87;100.00
2178;BME280;1095;50.992;6.798;2023-04-09T04:39:56;101780.75;;;3.84;100.00
2178;BME280;1095;50.992;6.798;2023-04-09T04:42:22;101783.59;;;3.79;100.00
2178;BME280;1095;50.992;6.798;2023-04-09T04:44:49;101793.94;;;3.79;100.00
2178;BME280;1095;50.992;6.798;2023-04-09T04:47:16;101789.88;;;3.75;100.00
2178;BME280;1095;50.992;6.798;2023-04-09T04:49:43;101787.47;;;3.72;100.00
2178;BME280;1095;50.992;6.798;2023-04-09T04:52:11;101794.47;;;3.70;100.00
2178;BME280;1095;50.992;6.798;2023-04-09T04:54:38;101787.63;;;3.69;100.00
2178;BME280;1095;50.992;6.798;2023-04-09T04:57:05;101793.81;;;3.66;100.00
2178;BME280;1095;50.992;6.798;2023-04-09T04:59:32;101793.63;;;3.70;100.00
2178;BME280;1095;50.992;6.798;2023-04-09T05:01:58;101800.66;;;3.67;100.00
2178;BME280;1095;50.992;6.798;2023-04-09T05:04:26;101795.38;;;3.69;100.00
2178;BME280;1095;50.992;6.798;2023-04-09T05:06:53;101781.59;;;3.69;100.00
2178;BME280;1095;50.992;6.798;2023-04-09T05:09:21;101795.31;;;3.71;100.00
2178;BME280;1095;50.992;6.798;2023-04-09T05:11:47;101794.31;;;3.73;100.00
2178;BME280;1095;50.992;6.798;2023-04-09T05:14:14;101788.97;;;3.76;100.00
2178;BME280;1095;50.992;6.798;2023-04-09T05:16:41;101800.88;;;3.79;100.00
2178;BME280;1095;50.992;6.798;2023-04-09T05:19:07;101792.78;;;3.85;100.00
2178;BME280;1095;50.992;6.798;2023-04-09T05:21:34;101795.94;;;3.90;100.00
2178;BME280;1095;50.992;6.798;2023-04-09T05:24:01;101799.22;;;3.93;100.00
2178;BME280;1095;50.992;6.798;2023-04-09T05:26:29;101783.59;;;3.95;100.00
2178;BME280;1095;50.992;6.798;2023-04-09T05:28:55;101797.53;;;4.08;100.00
2178;BME280;1095;50.992;6.798;2023-04-09T05:31:22;101799.59;;;4.17;100.00
2178;BME280;1095;50.992;6.798;2023-04-09T05:33:48;101800.09;;;4.24;100.00
2178;BME280;1095;50.992;6.798;2023-04-09T05:36:16;101798.38;;;4.39;100.00
2178;BME280;1095;50.992;6.798;2023-04-09T05:38:43;101789.50;;;4.43;100.00
2178;BME280;1095;50.992;6.798;2023-04-09T05:41:10;101800.66;;;4.59;100.00
2178;BME280;1095;50.992;6.798;2023-04-09T05:43:38;101801.63;;;4.72;100.00
2178;BME280;1095;50.992;6.798;2023-04-09T05:46:04;101794.84;;;4.84;100.00
2178;BME280;1095;50.992;6.798;2023-04-09T05:48:34;101785.91;;;5.04;100.00
2178;BME280;1095;50.992;6.798;2023-04-09T05:51:01;101784.78;;;5.08;100.00
2178;BME280;1095;50.992;6.798;2023-04-09T05:53:27;101786.25;;;5.26;100.00
2178;BME280;1095;50.992;6.798;2023-04-09T05:55:55;101784.75;;;5.36;100.00
2178;BME280;1095;50.992;6.798;2023-04-09T05:58:22;101785.50;;;5.38;100.00
2178;BME280;1095;50.992;6.798;2023-04-09T06:00:50;101781.03;;;5.54;100.00
2178;BME280;1095;50.992;6.798;2023-04-09T06:03:16;101768.81;;;5.56;100.00
2178;BME280;1095;50.992;6.798;2023-04-09T06:05:44;101776.41;;;5.59;100.00
2178;BME280;1095;50.992;6.798;2023-04-09T06:08:10;101774.38;;;5.77;100.00
2178;BME280;1095;50.992;6.798;2023-04-09T06:10:38;101766.84;;;6.01;100.00
2178;BME280;1095;50.992;6.798;2023-04-09T06:13:04;101764.94;;;6.30;100.00
2178;BME280;1095;50.992;6.798;2023-04-09T06:15:31;101767.47;;;6.82;100.00
2178;BME280;1095;50.992;6.798;2023-04-09T06:17:59;101766.38;;;7.48;100.00
2178;BME280;1095;50.992;6.798;2023-04-09T06:20:26;101759.16;;;8.23;100.00
2178;BME280;1095;50.992;6.798;2023-04-09T06:22:52;101774.66;;;9.83;100.00
2178;BME280;1095;50.992;6.798;2023-04-09T06:25:19;101770.16;;;10.79;96.52
2178;BME280;1095;50.992;6.798;2023-04-09T06:27:45;101773.81;;;11.38;90.47
2178;BME280;1095;50.992;6.798;2023-04-09T06:30:12;101740.84;;;11.25;85.04
2178;BME280;1095;50.992;6.798;2023-04-09T06:32:39;101740.28;;;10.91;82.96
2178;BME280;1095;50.992;6.798;2023-04-09T06:35:07;101744.31;;;10.44;82.65
2178;BME280;1095;50.992;6.798;2023-04-09T06:37:34;101752.94;;;10.56;82.42
2178;BME280;1095;50.992;6.798;2023-04-09T06:40:01;101751.41;;;10.74;80.76
2178;BME280;1095;50.992;6.798;2023-04-09T06:42:27;101750.94;;;10.69;79.77
2178;BME280;1095;50.992;6.798;2023-04-09T06:44:55;101742.19;;;11.10;78.55
2178;BME280;1095;50.992;6.798;2023-04-09T06:47:21;101746.50;;;10.90;78.17
2178;BME280;1095;50.992;6.798;2023-04-09T06:49:51;101748.28;;;11.20;77.14
2178;BME280;1095;50.992;6.798;2023-04-09T06:52:20;101738.00;;;11.48;75.22
2178;BME280;1095;50.992;6.798;2023-04-09T06:54:49;101749.19;;;11.59;74.89
2178;BME280;1095;50.992;6.798;2023-04-09T06:57:16;101744.38;;;11.64;74.81
2178;BME280;1095;50.992;6.798;2023-04-09T06:59:43;101748.16;;;11.81;74.10
2178;BME280;1095;50.992;6.798;2023-04-09T07:02:09;101752.34;;;11.44;74.51
2178;BME280;1095;50.992;6.798;2023-04-09T07:04:36;101749.75;;;11.63;73.59
2178;BME280;1095;50.992;6.798;2023-04-09T07:07:03;101749.19;;;11.59;73.07
2178;BME280;1095;50.992;6.798;2023-04-09T07:09:31;101738.75;;;11.88;71.30
2178;BME280;1095;50.992;6.798;2023-04-09T07:11:58;101751.91;;;11.79;71.95
2178;BME280;1095;50.992;6.798;2023-04-09T07:14:24;101750.31;;;11.67;72.02
2178;BME280;1095;50.992;6.798;2023-04-09T07:16:51;101761.28;;;11.41;72.02
2178;BME280;1095;50.992;6.798;2023-04-09T07:19:17;101760.81;;;11.67;71.16
2178;BME280;1095;50.992;6.798;2023-04-09T07:21:44;101753.38;;;11.72;70.92
2178;BME280;1095;50.992;6.798;2023-04-09T07:24:11;101755.75;;;11.25;71.82
2178;BME280;1095;50.992;6.798;2023-04-09T07:26:39;101766.03;;;11.57;71.56
2178;BME280;1095;50.992;6.798;2023-04-09T07:29:12;101757.28;;;11.96;70.96
2178;BME280;1095;50.992;6.798;2023-04-09T07:31:39;101767.50;;;12.19;70.08
2178;BME280;1095;50.992;6.798;2023-04-09T07:34:06;101748.09;;;13.33;68.18
2178;BME280;1095;50.992;6.798;2023-04-09T07:36:33;101761.69;;;11.96;69.92
2178;BME280;1095;50.992;6.798;2023-04-09T07:39:00;101761.16;;;12.02;69.59
2178;BME280;1095;50.992;6.798;2023-04-09T07:41:27;101763.31;;;12.36;69.86
2178;BME280;1095;50.992;6.798;2023-04-09T07:43:55;101770.25;;;12.27;70.00
2178;BME280;1095;50.992;6.798;2023-04-09T07:46:21;101776.19;;;12.19;69.32
2178;BME280;1095;50.992;6.798;2023-04-09T07:48:48;101769.72;;;12.14;69.53
2178;BME280;1095;50.992;6.798;2023-04-09T07:51:15;101767.50;;;12.28;68.50
2178;BME280;1095;50.992;6.798;2023-04-09T07:53:41;101769.38;;;12.55;69.04
2178;BME280;1095;50.992;6.798;2023-04-09T07:56:08;101761.31;;;12.76;68.49
2178;BME280;1095;50.992;6.798;2023-04-09T07:58:35;101760.44;;;12.85;67.75
2178;BME280;1095;50.992;6.798;2023-04-09T08:01:03;101757.06;;;13.03;67.22
2178;BME280;1095;50.992;6.798;2023-04-09T08:03:30;101762.94;;;12.87;66.90
2178;BME280;1095;50.992;6.798;2023-04-09T08:05:57;101764.59;;;13.52;66.80
2178;BME280;1095;50.992;6.798;2023-04-09T08:08:23;101756.41;;;14.96;64.33
2178;BME280;1095;50.992;6.798;2023-04-09T08:10:50;101752.88;;;15.64;62.25
2178;BME280;1095;50.992;6.798;2023-04-09T08:13:16;101762.25;;;14.12;64.08
2178;BME280;1095;50.992;6.798;2023-04-09T08:15:43;101749.09;;;15.24;62.20
2178;BME280;1095;50.992;6.798;2023-04-09T08:18:11;101753.22;;;15.69;61.45
2178;BME280;1095;50.992;6.798;2023-04-09T08:20:38;101759.00;;;15.30;60.93
2178;BME280;1095;50.992;6.798;2023-04-09T08:23:09;101747.94;;;15.69;60.13
2178;BME280;1095;50.992;6.798;2023-04-09T08:25:35;101753.34;;;15.17;59.49
2178;BME280;1095;50.992;6.798;2023-04-09T08:28:02;101749.22;;;14.11;60.93
2178;BME280;1095;50.992;6.798;2023-04-09T08:30:28;101758.06;;;15.39;61.34
2178;BME280;1095;50.992;6.798;2023-04-09T08:32:58;101755.09;;;13.69;61.36
2178;BME280;1095;50.992;6.798;2023-04-09T08:35:26;101749.50;;;14.43;61.86
2178;BME280;1095;50.992;6.798;2023-04-09T08:37:53;101751.16;;;13.73;61.70
2178;BME280;1095;50.992;6.798;2023-04-09T08:40:20;101766.06;;;15.64;61.85
2178;BME280;1095;50.992;6.798;2023-04-09T08:42:53;101753.41;;;15.91;59.88
2178;BME280;1095;50.992;6.798;2023-04-09T08:45:21;101753.59;;;16.06;59.49
2178;BME280;1095;50.992;6.798;2023-04-09T08:47:49;101739.56;;;16.22;57.97
2178;BME280;1095;50.992;6.798;2023-04-09T08:50:16;101742.31;;;16.61;57.80
2178;BME280;1095;50.992;6.798;2023-04-09T08:52:45;101736.84;;;16.79;56.39
2178;BME280;1095;50.992;6.798;2023-04-09T08:55:12;101742.09;;;16.95;56.01
2178;BME280;1095;50.992;6.798;2023-04-09T08:57:39;101741.31;;;15.14;56.91
2178;BME280;1095;50.992;6.798;2023-04-09T09:00:07;101742.03;;;16.15;57.21
2178;BME280;1095;50.992;6.798;2023-04-09T09:02:33;101733.94;;;15.76;56.49
2178;BME280;1095;50.992;6.798;2023-04-09T09:05:00;101736.06;;;16.46;55.96
2178;BME280;1095;50.992;6.798;2023-04-09T09:07:29;101727.03;;;15.91;55.20
2178;BME280;1095;50.992;6.798;2023-04-09T09:09:59;101732.66;;;14.88;56.74
2178;BME280;1095;50.992;6.798;2023-04-09T09:12:35;101729.47;;;14.50;56.41
2178;BME280;1095;50.992;6.798;2023-04-09T09:15:04;101725.91;;;14.59;55.86
2178;BME280;1095;50.992;6.798;2023-04-09T09:17:31;101729.50;;;14.84;56.46
2178;BME280;1095;50.992;6.798;2023-04-09T09:19:58;101723.66;;;14.73;56.36
2178;BME280;1095;50.992;6.798;2023-04-09T09:22:24;101725.78;;;14.00;56.49
2178;BME280;1095;50.992;6.798;2023-04-09T09:24:51;101719.69;;;13.81;57.09
2178;BME280;1095;50.992;6.798;2023-04-09T09:27:35;101719.84;;;13.62;57.26
2178;BME280;1095;50.992;6.798;2023-04-09T09:30:05;101716.47;;;14.49;55.18
2178;BME280;1095;50.992;6.798;2023-04-09T09:32:33;101706.03;;;14.21;55.09
2178;BME280;1095;50.992;6.798;2023-04-09T09:35:02;101714.88;;;13.77;57.12
2178;BME280;1095;50.992;6.798;2023-04-09T09:37:29;101718.84;;;13.45;57.36
2178;BME280;1095;50.992;6.798;2023-04-09T09:39:56;101726.63;;;13.10;58.23
2178;BME280;1095;50.992;6.798;2023-04-09T09:42:23;101722.94;;;13.30;58.50
2178;BME280;1095;50.992;6.798;2023-04-09T09:44:52;101709.88;;;13.38;56.89
2178;BME280;1095;50.992;6.798;2023-04-09T09:47:20;101712.31;;;13.49;57.46
2178;BME280;1095;50.992;6.798;2023-04-09T09:49:49;101705.44;;;13.21;56.98
2178;BME280;1095;50.992;6.798;2023-04-09T09:52:21;101702.69;;;13.40;56.89
2178;BME280;1095;50.992;6.798;2023-04-09T09:54:52;101710.19;;;14.06;57.49
2178;BME280;1095;50.992;6.798;2023-04-09T09:57:24;101696.47;;;14.20;56.68
2178;BME280;1095;50.992;6.798;2023-04-09T10:00:19;101693.28;;;13.38;56.87
2178;BME280;1095;50.992;6.798;2023-04-09T10:02:55;101703.63;;;13.67;57.20
2178;BME280;1095;50.992;6.798;2023-04-09T10:05:23;101702.47;;;14.05;57.62
2178;BME280;1095;50.992;6.798;2023-04-09T10:07:52;101690.22;;;13.78;56.78
2178;BME280;1095;50.992;6.798;2023-04-09T10:10:20;101699.75;;;13.97;56.98
2178;BME280;1095;50.992;6.798;2023-04-09T10:12:48;101701.34;;;13.72;57.10
2178;BME280;1095;50.992;6.798;2023-04-09T10:15:17;101705.16;;;14.39;58.35
2178;BME280;1095;50.992;6.798;2023-04-09T10:17:44;101691.78;;;14.84;56.76
2178;BME280;1095;50.992;6.798;2023-04-09T10:20:15;101686.56;;;14.66;56.03
2178;BME280;1095;50.992;6.798;2023-04-09T10:22:47;101686.38;;;14.34;56.96
2178;BME280;1095;50.992;6.798;2023-04-09T10:25:16;101702.09;;;13.82;57.07
2178;BME280;1095;50.992;6.798;2023-04-09T10:27:43;101691.97;;;13.69;57.11
2178;BME280;1095;50.992;6.798;2023-04-09T10:30:31;101689.09;;;13.98;58.59
2178;BME280;1095;50.992;6.798;2023-04-09T10:33:08;101680.34;;;13.98;56.98
2178;BME280;1095;50.992;6.798;2023-04-09T10:35:35;101683.72;;;14.08;57.17
2178;BME280;1095;50.992;6.798;2023-04-09T10:38:02;101691.84;;;14.66;58.11
2178;BME280;1095;50.992;6.798;2023-04-09T10:40:29;101687.31;;;15.26;57.03
2178;BME280;1095;50.992;6.798;2023-04-09T10:42:57;101668.50;;;14.19;55.51
2178;BME280;1095;50.992;6.798;2023-04-09T10:45:39;101669.16;;;13.78;56.38
2178;BME280;1095;50.992;6.798;2023-04-09T10:48:10;101673.44;;;14.22;57.46
2178;BME280;1095;50.992;6.798;2023-04-09T10:50:38;101672.03;;;14.54;56.95
2178;BME280;1095;50.992;6.798;2023-04-09T10:53:05;101670.94;;;14.99;56.62
2178;BME280;1095;50.992;6.798;2023-04-09T10:55:34;101672.44;;;14.15;56.92
2178;BME280;1095;50.992;6.798;2023-04-09T10:58:02;101669.47;;;14.62;56.71
2178;BME280;1095;50.992;6.798;2023-04-09T11:00:29;101670.09;;;14.56;56.80
2178;BME280;1095;50.992;6.798;2023-04-09T11:03:09;101661.22;;;14.99;57.19
2178;BME280;1095;50.992;6.798;2023-04-09T11:05:41;101672.13;;;15.20;56.81
2178;BME280;1095;50.992;6.798;2023-04-09T11:08:10;101660.56;;;14.63;55.48
2178;BME280;1095;50.992;6.798;2023-04-09T11:10:39;101660.19;;;14.50;56.28
2178;BME280;1095;50.992;6.798;2023-04-09T11:13:10;101657.09;;;15.13;55.70
2178;BME280;1095;50.992;6.798;2023-04-09T11:15:37;101640.97;;;15.16;55.46
2178;BME280;1095;50.992;6.798;2023-04-09T11:18:05;101653.09;;;14.92;55.11
2178;BME280;1095;50.992;6.798;2023-04-09T11:20:34;101652.59;;;14.47;56.55
2178;BME280;1095;50.992;6.798;2023-04-09T11:23:01;101650.78;;;14.29;56.50
2178;BME280;1095;50.992;6.798;2023-04-09T11:25:30;101644.69;;;14.47;56.59
2178;BME280;1095;50.992;6.798;2023-04-09T11:27:57;101636.19;;;14.61;55.34
2178;BME280;1095;50.992;6.798;2023-04-09T11:30:24;101643.03;;;14.46;56.27
2178;BME280;1095;50.992;6.798;2023-04-09T11:32:54;101638.34;;;15.24;55.96
2178;BME280;1095;50.992;6.798;2023-04-09T11:35:22;101626.69;;;15.43;54.18
2178;BME280;1095;50.992;6.798;2023-04-09T11:37:49;101641.59;;;14.93;56.12
2178;BME280;1095;50.992;6.798;2023-04-09T11:40:18;101636.41;;;15.34;55.43
2178;BME280;1095;50.992;6.798;2023-04-09T11:42:48;101627.31;;;15.20;55.40
2178;BME280;1095;50.992;6.798;2023-04-09T11:45:15;101630.94;;;15.11;55.98
2178;BME280;1095;50.992;6.798;2023-04-09T11:47:43;101642.16;;;14.71;56.08
2178;BME280;1095;50.992;6.798;2023-04-09T11:50:11;101637.72;;;14.20;57.29
2178;BME280;1095;50.992;6.798;2023-04-09T11:52:40;101626.38;;;14.19;56.15
2178;BME280;1095;50.992;6.798;2023-04-09T11:55:08;101621.25;;;14.10;57.04
2178;BME280;1095;50.992;6.798;2023-04-09T11:57:39;101628.56;;;13.98;56.75
2178;BME280;1095;50.992;6.798;2023-04-09T12:00:08;101636.75;;;14.21;56.70
2178;BME280;1095;50.992;6.798;2023-04-09T12:02:37;101631.66;;;13.76;57.68
2178;BME280;1095;50.992;6.798;2023-04-09T12:05:06;101641.06;;;14.48;58.01
2178;BME280;1095;50.992;6.798;2023-04-09T12:07:33;101631.56;;;15.13;56.66
2178;BME280;1095;50.992;6.798;2023-04-09T12:10:04;101627.50;;;15.27;56.26
2178;BME280;1095;50.992;6.798;2023-04-09T12:12:41;101620.22;;;15.05;55.36
2178;BME280;1095;50.992;6.798;2023-04-09T12:15:17;101634.41;;;14.70;55.82
2178;BME280;1095;50.992;6.798;2023-04-09T12:17:48;101624.53;;;14.38;56.02
2178;BME280;1095;50.992;6.798;2023-04-09T12:20:29;101622.75;;;14.20;56.04
2178;BME280;1095;50.992;6.798;2023-04-09T12:22:57;101628.38;;;14.85;55.78
2178;BME280;1095;50.992;6.798;2023-04-09T12:25:27;101616.31;;;15.49;55.22
2178;BME280;1095;50.992;6.798;2023-04-09T12:27:54;101621.03;;;15.13;56.18
2178;BME280;1095;50.992;6.798;2023-04-09T12:30:21;101630.56;;;14.56;56.73
2178;BME280;1095;50.992;6.798;2023-04-09T12:32:48;101627.34;;;14.10;57.55
2178;BME280;1095;50.992;6.798;2023-04-09T12:35:14;101620.94;;;14.13;57.33
2178;BME280;1095;50.992;6.798;2023-04-09T12:37:41;101632.28;;;14.13;57.44
2178;BME280;1095;50.992;6.798;2023-04-09T12:40:08;101620.19;;;15.13;57.16
2178;BME280;1095;50.992;6.798;2023-04-09T12:42:42;101610.34;;;15.07;55.45
2178;BME280;1095;50.992;6.798;2023-04-09T12:45:10;101621.84;;;14.98;55.77
2178;BME280;1095;50.992;6.798;2023-04-09T12:47:37;101609.72;;;15.45;55.40
2178;BME280;1095;50.992;6.798;2023-04-09T12:50:07;101602.47;;;15.55;54.07
2178;BME280;1095;50.992;6.798;2023-04-09T12:52:34;101608.00;;;14.96;54.25
2178;BME280;1095;50.992;6.798;2023-04-09T12:55:01;101613.13;;;15.05;55.17
2178;BME280;1095;50.992;6.798;2023-04-09T12:57:28;101617.25;;;15.08;56.43
2178;BME280;1095;50.992;6.798;2023-04-09T12:59:56;101612.56;;;14.85;56.00
2178;BME280;1095;50.992;6.798;2023-04-09T13:02:23;101603.78;;;15.43;55.12
2178;BME280;1095;50.992;6.798;2023-04-09T13:04:50;101605.69;;;15.01;55.71
2178;BME280;1095;50.992;6.798;2023-04-09T13:07:18;101605.06;;;14.56;55.44
2178;BME280;1095;50.992;6.798;2023-04-09T13:09:45;101614.81;;;14.72;56.25
2178;BME280;1095;50.992;6.798;2023-04-09T13:12:12;101618.13;;;14.74;56.37
2178;BME280;1095;50.992;6.798;2023-04-09T13:14:40;101603.84;;;14.85;55.53